Amaranth, Pennsylvania
Current Conditions -  °F | °C
As of 8:34 PM on Wednesday 22 Oct 2014 (Local Time) from KHGR Reporting Station
Overcast Overcast  
Wind Chill: 52°   Ceiling: 2900
Heat Index: 52°   Visibility: 10mi
Dew Point: 41°   Wind: 10mph
Humidity: 66%   Direction: 330°NNW
Pressure: 30.01"   Gusts: 20mph
Location:  39.7745°N, 78.2026°W
Report Text: KHGR 230034Z 33009G17KT 10SM OVC029 11/05 A3001 RMK AO2 T01110050
Loading
Personal Weather Stations






























Interactive Weather Map
Tropical Storm Tracking
New forecast layout! Learn more

10-Day Weather Forecast

Advertisements
Track Severe Weather on mobile